Time;durP1;ratioP1;P1;durP2;ratioP2;P2;SDS_P1;SDS_P2;PMS_P1;PMS_P2;Temp;Humidity;BMP_temperature;BMP_pressure;BME280_temperature;BME280_humidity;BME280_pressure;Samples;Min_cycle;Max_cycle;Signal;HPM_P1;HPM_P2
2023/12/22 00:02:16;;;;;;;20.05;13.27;;;21.40;49.10;;;;;;10471280;28;20132;-44
2023/12/22 00:07:20;;;;;;;16.05;11.93;;;21.50;48.90;;;;;;10465533;28;20052;-44
2023/12/22 00:12:21;;;;;;;17.58;12.48;;;21.50;48.80;;;;;;10468295;28;20059;-42
2023/12/22 00:17:23;;;;;;;17.00;12.00;;;21.40;48.80;;;;;;10482354;28;20068;-42
2023/12/22 00:22:26;;;;;;;17.60;12.13;;;21.40;48.70;;;;;;10474262;28;20127;-42
2023/12/22 00:27:27;;;;;;;17.75;11.57;;;21.40;48.90;;;;;;10477380;28;20042;-42
2023/12/22 00:32:29;;;;;;;15.10;11.35;;;21.40;48.60;;;;;;10476011;28;20044;-42
2023/12/22 00:37:32;;;;;;;16.15;11.18;;;21.30;48.70;;;;;;10475636;28;20686;-43
2023/12/22 00:42:33;;;;;;;17.77;11.05;;;21.10;48.90;;;;;;10473843;28;20061;-42
2023/12/22 00:47:35;;;;;;;14.70;10.35;;;21.00;48.90;;;;;;10471143;28;20051;-43
2023/12/22 00:52:38;;;;;;;14.65;9.93;;;21.20;48.80;;;;;;10469557;28;20136;-42
2023/12/22 00:57:40;;;;;;;13.27;9.57;;;21.20;48.70;;;;;;10476899;28;20045;-42
2023/12/22 01:02:41;;;;;;;14.32;10.13;;;21.00;48.80;;;;;;10482666;28;20062;-41
2023/12/22 01:07:44;;;;;;;13.85;9.50;;;21.00;48.80;;;;;;10475298;28;20460;-42
2023/12/22 01:12:46;;;;;;;12.43;9.18;;;20.90;48.50;;;;;;10478789;28;20155;-43
2023/12/22 01:17:48;;;;;;;13.13;8.30;;;20.80;48.70;;;;;;10472008;28;20131;-42
2023/12/22 01:22:51;;;;;;;11.80;8.27;;;20.90;48.60;;;;;;10476159;28;20135;-41
2023/12/22 01:27:53;;;;;;;11.70;7.85;;;20.80;48.90;;;;;;10470894;28;20135;-42
2023/12/22 01:32:54;;;;;;;10.60;7.80;;;20.80;48.60;;;;;;10473821;28;20493;-42
2023/12/22 01:37:57;;;;;;;12.30;7.90;;;20.70;48.60;;;;;;10471129;28;20045;-45
2023/12/22 01:42:59;;;;;;;10.50;7.65;;;20.60;48.50;;;;;;10469907;28;20064;-42
2023/12/22 01:48:00;;;;;;;10.38;7.15;;;20.40;48.60;;;;;;10479563;28;20559;-41
2023/12/22 01:53:04;;;;;;;12.43;6.68;;;20.40;48.70;;;;;;10463836;28;20160;-42
2023/12/22 01:58:05;;;;;;;8.70;6.90;;;20.40;48.70;;;;;;10468860;28;20136;-42
2023/12/22 02:03:07;;;;;;;9.45;6.82;;;20.40;48.80;;;;;;10467861;28;20155;-44
2023/12/22 02:08:10;;;;;;;8.57;6.30;;;20.40;48.80;;;;;;10477162;28;20139;-42
2023/12/22 02:13:12;;;;;;;10.63;6.20;;;20.10;49.10;;;;;;10483877;28;20135;-43
2023/12/22 02:18:15;;;;;;;11.00;6.10;;;20.10;49.70;;;;;;10468195;28;20503;-41
2023/12/22 02:23:18;;;;;;;8.60;6.20;;;20.20;48.90;;;;;;10469720;28;20129;-43
2023/12/22 02:28:20;;;;;;;8.13;5.82;;;20.10;49.10;;;;;;10467646;28;20132;-42
2023/12/22 02:33:22;;;;;;;6.55;5.47;;;20.00;49.20;;;;;;10474356;28;20135;-42
2023/12/22 02:38:25;;;;;;;7.55;5.35;;;20.00;49.00;;;;;;10476073;28;20506;-41
2023/12/22 02:43:26;;;;;;;7.63;5.13;;;19.90;49.10;;;;;;10465500;28;20148;-42
2023/12/22 02:48:28;;;;;;;8.35;5.20;;;20.00;49.00;;;;;;10471931;28;20132;-42
2023/12/22 02:53:31;;;;;;;6.68;5.10;;;20.00;48.80;;;;;;10471794;28;20135;-42
2023/12/22 02:58:32;;;;;;;6.68;5.15;;;20.10;48.60;;;;;;10471729;28;20139;-41
2023/12/22 03:03:34;;;;;;;6.60;4.78;;;20.00;48.50;;;;;;10464223;28;20136;-42
2023/12/22 03:08:37;;;;;;;6.63;4.78;;;20.00;48.40;;;;;;10464756;28;20136;-41
2023/12/22 03:13:39;;;;;;;6.00;4.07;;;19.90;48.80;;;;;;10466983;28;20123;-42
2023/12/22 03:18:40;;;;;;;6.93;4.70;;;19.80;48.70;;;;;;10471326;28;20483;-42
2023/12/22 03:23:43;;;;;;;8.00;4.75;;;19.80;48.80;;;;;;10475276;28;20418;-46
2023/12/22 03:28:45;;;;;;;7.45;4.63;;;19.60;49.20;;;;;;10469703;28;20127;-42
2023/12/22 03:33:46;;;;;;;6.90;4.75;;;19.70;49.20;;;;;;10467483;28;20132;-43
2023/12/22 03:38:49;;;;;;;5.57;3.97;;;19.70;49.20;;;;;;10464357;28;20055;-44
2023/12/22 03:43:51;;;;;;;5.20;3.70;;;19.90;48.90;;;;;;10476516;28;20131;-43
2023/12/22 03:48:52;;;;;;;4.68;3.65;;;20.10;48.40;;;;;;10470425;28;20043;-42
2023/12/22 03:53:55;;;;;;;5.88;3.75;;;20.10;48.20;;;;;;10466936;28;20465;-42
2023/12/22 03:58:57;;;;;;;4.75;3.63;;;20.20;47.90;;;;;;10467103;28;20128;-41
2023/12/22 04:03:59;;;;;;;4.75;3.53;;;20.40;47.70;;;;;;10470985;28;20157;-43
2023/12/22 04:09:02;;;;;;;4.70;3.70;;;20.50;47.90;;;;;;10476546;28;20132;-42
2023/12/22 04:14:03;;;;;;;4.55;3.42;;;20.90;47.70;;;;;;10464338;28;20526;-42
2023/12/22 04:19:05;;;;;;;4.53;3.35;;;20.90;48.10;;;;;;10463291;28;20402;-43
2023/12/22 04:24:08;;;;;;;5.28;3.60;;;21.10;48.00;;;;;;10462611;28;20087;-44
2023/12/22 04:29:10;;;;;;;4.80;3.53;;;21.50;47.70;;;;;;10472461;28;20048;-42
2023/12/22 04:34:14;;;;;;;4.30;3.33;;;21.60;47.30;;;;;;10475187;28;20057;-42
2023/12/22 04:39:17;;;;;;;4.30;2.90;;;21.80;47.10;;;;;;10460098;28;20077;-43
2023/12/22 04:44:18;;;;;;;3.10;2.70;;;22.10;46.80;;;;;;10466383;28;20139;-44
2023/12/22 04:49:20;;;;;;;3.40;2.70;;;22.20;46.50;;;;;;10458269;28;20610;-42
2023/12/22 04:54:23;;;;;;;3.53;2.72;;;22.30;46.30;;;;;;10473932;28;20147;-42
2023/12/22 04:59:25;;;;;;;3.13;2.67;;;22.40;46.10;;;;;;10474781;28;20180;-45
2023/12/22 05:04:26;;;;;;;2.95;2.42;;;22.50;46.00;;;;;;10471302;28;21007;-42
2023/12/22 05:09:29;;;;;;;3.75;2.50;;;22.60;45.60;;;;;;10472955;28;20131;-42
2023/12/22 05:14:31;;;;;;;3.80;2.45;;;22.50;45.60;;;;;;10473690;28;20048;-44
2023/12/22 05:19:32;;;;;;;3.38;2.63;;;22.50;45.60;;;;;;10473775;28;20136;-43
2023/12/22 05:24:35;;;;;;;3.10;2.30;;;22.60;45.50;;;;;;10473489;28;20144;-43
2023/12/22 05:29:37;;;;;;;3.92;2.40;;;22.60;45.40;;;;;;10471419;28;20471;-42
2023/12/22 05:34:39;;;;;;;3.28;2.28;;;22.60;45.50;;;;;;10476201;28;20622;-42
2023/12/22 05:39:43;;;;;;;4.63;2.63;;;22.70;45.40;;;;;;10477759;28;20086;-44
2023/12/22 05:44:49;;;;;;;3.10;2.08;;;22.70;45.20;;;;;;10477318;28;20049;-44
2023/12/22 05:49:51;;;;;;;2.78;2.20;;;22.80;45.10;;;;;;10470757;28;20132;-44
2023/12/22 05:54:54;;;;;;;3.63;2.08;;;22.70;45.20;;;;;;10462965;28;20127;-43
2023/12/22 05:59:55;;;;;;;3.45;2.10;;;22.70;45.40;;;;;;10474046;28;20487;-43
2023/12/22 06:04:57;;;;;;;3.30;1.80;;;22.70;45.50;;;;;;10477340;28;20078;-45
2023/12/22 06:10:02;;;;;;;4.18;2.15;;;22.40;46.10;;;;;;10478540;28;20127;-43
2023/12/22 06:15:04;;;;;;;3.22;2.00;;;22.50;45.90;;;;;;10475691;28;20132;-46
2023/12/22 06:20:07;;;;;;;3.22;2.03;;;22.40;45.90;;;;;;10471000;28;20144;-44
2023/12/22 06:25:10;;;;;;;2.60;1.85;;;22.40;46.00;;;;;;10475411;28;20140;-42
2023/12/22 06:30:13;;;;;;;3.95;1.85;;;22.40;46.00;;;;;;10472096;28;20519;-41
2023/12/22 06:35:15;;;;;;;2.88;1.70;;;22.60;46.00;;;;;;10466896;28;20049;-42
2023/12/22 06:40:18;;;;;;;4.28;1.55;;;22.80;45.80;;;;;;10468595;28;20049;-44
2023/12/22 06:45:20;;;;;;;7.72;2.00;;;22.80;45.90;;;;;;10467003;28;20151;-42
2023/12/22 06:50:22;;;;;;;9.00;2.60;;;22.50;46.90;;;;;;10472180;28;20127;-43
2023/12/22 06:55:25;;;;;;;8.90;2.60;;;22.70;49.10;;;;;;10475754;28;20045;-43
2023/12/22 07:00:26;;;;;;;8.10;3.30;;;22.80;49.50;;;;;;10463741;28;20630;-45
2023/12/22 07:05:36;;;;;;;10.13;3.53;;;22.80;51.90;;;;;;10465867;28;20427;-45
2023/12/22 07:10:39;;;;;;;10.70;3.28;;;23.00;49.20;;;;;;10464748;28;20410;-42
2023/12/22 07:15:40;;;;;;;9.15;3.25;;;22.80;48.60;;;;;;10481802;28;20139;-43
2023/12/22 07:20:42;;;;;;;9.73;2.78;;;22.90;48.00;;;;;;10475733;28;20135;-42
2023/12/22 07:25:45;;;;;;;8.63;3.00;;;22.90;47.50;;;;;;10469403;28;20140;-45
2023/12/22 07:30:46;;;;;;;8.50;2.58;;;22.90;47.30;;;;;;10474028;28;20139;-43
2023/12/22 07:35:48;;;;;;;7.32;2.22;;;23.00;46.70;;;;;;10470076;28;20573;-43
2023/12/22 07:40:51;;;;;;;8.32;2.70;;;23.10;46.20;;;;;;10476471;28;20480;-44
2023/12/22 07:45:53;;;;;;;8.45;3.00;;;23.00;45.80;;;;;;10474476;28;20160;-42
2023/12/22 07:50:54;;;;;;;7.30;2.40;;;22.90;45.20;;;;;;10467596;28;20103;-42
2023/12/22 07:55:59;;;;;;;6.45;2.40;;;23.00;44.50;;;;;;10466971;28;20176;-45
2023/12/22 08:01:00;;;;;;;9.02;2.72;;;22.90;44.20;;;;;;10473800;28;20045;-47
2023/12/22 08:06:02;;;;;;;5.95;2.60;;;23.10;44.00;;;;;;10476869;28;20053;-43
2023/12/22 08:11:05;;;;;;;7.13;2.38;;;23.10;43.10;;;;;;10466576;28;20120;-42
2023/12/22 08:16:07;;;;;;;7.22;2.40;;;23.10;42.90;;;;;;10468997;28;20142;-47
2023/12/22 08:21:08;;;;;;;6.45;2.33;;;23.20;42.80;;;;;;10476192;28;20410;-43
2023/12/22 08:26:11;;;;;;;5.65;2.28;;;23.20;42.60;;;;;;10467990;28;20505;-43
2023/12/22 08:31:15;;;;;;;5.13;2.10;;;23.10;42.30;;;;;;10475299;28;20094;-44
2023/12/22 08:36:17;;;;;;;5.28;2.10;;;23.20;42.30;;;;;;10470385;28;20056;-44
2023/12/22 08:41:20;;;;;;;4.78;2.30;;;23.20;42.30;;;;;;10474947;28;20131;-44
2023/12/22 08:46:24;;;;;;;4.28;1.90;;;23.20;41.70;;;;;;10472621;28;20044;-43
2023/12/22 08:51:26;;;;;;;8.80;2.00;;;23.30;42.00;;;;;;10471021;28;20079;-44
2023/12/22 08:56:29;;;;;;;7.90;2.33;;;23.40;41.50;;;;;;10473637;28;20494;-44
2023/12/22 09:01:31;;;;;;;5.20;1.83;;;23.30;42.10;;;;;;10479265;28;20375;-43
2023/12/22 09:06:33;;;;;;;6.07;2.15;;;23.40;42.20;;;;;;10472611;28;20132;-44
2023/12/22 09:11:36;;;;;;;5.80;1.80;;;23.50;42.40;;;;;;10475457;28;20053;-45
2023/12/22 09:16:38;;;;;;;6.07;1.60;;;23.50;41.70;;;;;;10468885;28;20496;-44
2023/12/22 09:21:40;;;;;;;6.80;1.70;;;23.50;40.90;;;;;;10471385;28;20045;-43
2023/12/22 09:26:43;;;;;;;5.30;1.83;;;23.70;41.00;;;;;;10475637;28;20136;-42
2023/12/22 09:31:44;;;;;;;4.57;1.70;;;23.60;39.90;;;;;;10469793;28;20483;-45
2023/12/22 09:36:46;;;;;;;5.80;1.77;;;23.80;38.60;;;;;;10476749;28;20140;-47
2023/12/22 09:41:50;;;;;;;8.85;1.77;;;24.00;39.00;;;;;;10468972;28;20045;-48
2023/12/22 09:46:52;;;;;;;8.75;1.95;;;23.90;38.30;;;;;;10475215;28;20127;-45
2023/12/22 09:51:53;;;;;;;4.75;1.50;;;23.80;38.50;;;;;;10468211;28;20052;-47
2023/12/22 09:56:56;;;;;;;5.03;1.80;;;23.80;38.50;;;;;;10480071;28;20167;-48
2023/12/22 10:01:58;;;;;;;6.50;1.60;;;24.00;38.10;;;;;;10481431;28;20051;-45
2023/12/22 10:07:00;;;;;;;5.55;1.63;;;24.00;38.40;;;;;;10477275;28;20470;-45
2023/12/22 10:12:03;;;;;;;4.18;1.60;;;24.00;37.80;;;;;;10471326;28;20681;-46
2023/12/22 10:17:05;;;;;;;5.45;1.80;;;24.10;38.00;;;;;;10466194;28;20135;-46
2023/12/22 10:22:07;;;;;;;3.90;1.70;;;24.40;38.00;;;;;;10470636;28;20111;-44
2023/12/22 10:27:10;;;;;;;4.40;1.80;;;24.50;38.20;;;;;;10468026;28;20143;-48
2023/12/22 10:32:12;;;;;;;3.38;1.50;;;24.60;38.50;;;;;;10464707;28;20080;-44
2023/12/22 10:37:13;;;;;;;4.80;1.50;;;24.70;38.70;;;;;;10473350;28;20475;-45
2023/12/22 10:42:16;;;;;;;3.50;1.33;;;24.70;39.00;;;;;;10470450;28;20091;-47
2023/12/22 10:47:18;;;;;;;3.25;1.45;;;24.80;39.00;;;;;;10471316;28;20132;-47
2023/12/22 10:52:20;;;;;;;4.88;1.48;;;24.80;39.20;;;;;;10469535;28;20079;-43
2023/12/22 10:57:23;;;;;;;4.32;1.73;;;24.80;39.40;;;;;;10469398;28;20136;-45
2023/12/22 11:02:27;;;;;;;4.15;1.40;;;24.80;39.60;;;;;;10468215;28;20055;-44
2023/12/22 11:07:30;;;;;;;4.65;1.38;;;24.80;39.90;;;;;;10470420;28;20565;-46
2023/12/22 11:12:33;;;;;;;5.72;1.50;;;24.90;40.10;;;;;;10469203;28;20067;-44
2023/12/22 11:17:35;;;;;;;2.70;1.20;;;24.90;40.10;;;;;;10460571;28;20049;-47
2023/12/22 11:22:37;;;;;;;4.40;1.30;;;25.00;40.10;;;;;;10464644;28;20044;-44
2023/12/22 11:27:40;;;;;;;2.28;1.10;;;24.90;40.40;;;;;;10467705;28;20471;-44
2023/12/22 11:32:42;;;;;;;3.75;1.30;;;25.10;40.50;;;;;;10474288;28;20053;-47
2023/12/22 11:37:44;;;;;;;2.28;1.10;;;25.20;40.60;;;;;;10463240;28;20502;-45
2023/12/22 11:42:49;;;;;;;2.75;1.15;;;25.10;40.70;;;;;;10467602;28;20129;-45
2023/12/22 11:47:51;;;;;;;1.80;1.00;;;25.20;41.00;;;;;;10464839;28;20136;-46
2023/12/22 11:52:53;;;;;;;4.35;1.33;;;25.00;41.30;;;;;;10470038;28;20049;-45
2023/12/22 11:57:56;;;;;;;5.63;1.77;;;25.00;43.00;;;;;;10471229;28;20546;-46
2023/12/22 12:02:58;;;;;;;5.40;2.08;;;25.00;43.50;;;;;;10463161;28;20041;-46
2023/12/22 12:08:07;;;;;;;3.40;1.85;;;25.00;44.10;;;;;;10464270;28;20072;-45
2023/12/22 12:13:10;;;;;;;7.15;2.08;;;25.10;44.20;;;;;;10469035;28;20118;-45
2023/12/22 12:18:12;;;;;;;5.22;1.90;;;25.10;44.40;;;;;;10478801;28;20052;-46
2023/12/22 12:23:14;;;;;;;5.05;1.80;;;25.10;44.60;;;;;;10478352;28;20049;-47
2023/12/22 12:28:19;;;;;;;4.05;1.75;;;25.20;44.50;;;;;;10472108;28;20119;-45
2023/12/22 12:33:21;;;;;;;4.80;2.28;;;25.10;44.50;;;;;;10476444;28;20143;-45
2023/12/22 12:38:24;;;;;;;8.20;2.45;;;25.20;45.00;;;;;;10472584;28;20049;-45
2023/12/22 12:43:27;;;;;;;3.95;1.75;;;25.30;45.30;;;;;;10472047;28;20139;-45
2023/12/22 12:48:28;;;;;;;6.47;2.40;;;25.30;45.10;;;;;;10472748;28;20045;-44
2023/12/22 12:53:31;;;;;;;5.60;2.03;;;25.10;41.70;;;;;;10474208;28;20979;-45
2023/12/22 12:58:34;;;;;;;4.97;2.10;;;24.90;41.70;;;;;;10472743;28;20143;-46
2023/12/22 13:03:54;;;;;;;8.45;2.60;;;24.90;41.90;;;;;;10481973;28;20083;-46
2023/12/22 13:08:55;;;;;;;5.55;2.40;;;24.90;42.90;;;;;;10479761;28;20051;-46
2023/12/22 13:13:58;;;;;;;8.15;2.75;;;24.90;42.80;;;;;;10470279;28;20134;-45
2023/12/22 13:19:00;;;;;;;10.68;2.42;;;25.10;42.30;;;;;;10470244;28;20128;-46
2023/12/22 13:24:11;;;;;;;13.65;2.72;;;25.10;42.40;;;;;;10474978;28;20044;-49
2023/12/22 13:29:14;;;;;;;4.53;2.05;;;25.20;42.40;;;;;;10477153;28;20153;-46
2023/12/22 13:34:16;;;;;;;6.85;2.30;;;25.20;42.50;;;;;;10472086;28;20053;-45
2023/12/22 13:39:18;;;;;;;5.80;2.17;;;25.40;42.50;;;;;;10474949;28;20538;-45
2023/12/22 13:44:21;;;;;;;4.78;1.80;;;25.40;42.40;;;;;;10469677;28;20139;-45
2023/12/22 13:49:22;;;;;;;3.83;1.75;;;25.40;42.40;;;;;;10473934;28;20041;-43
2023/12/22 13:54:24;;;;;;;4.60;1.90;;;25.40;42.50;;;;;;10475462;28;20131;-44
2023/12/22 13:59:33;;;;;;;4.03;1.70;;;24.90;43.20;;;;;;10472351;28;20128;-46
2023/12/22 14:04:34;;;;;;;4.38;1.80;;;24.70;43.50;;;;;;10470104;28;20452;-45
2023/12/22 14:09:38;;;;;;;3.00;1.50;;;24.70;43.60;;;;;;10469489;28;20139;-43
2023/12/22 14:14:41;;;;;;;4.47;1.70;;;24.50;43.70;;;;;;10477038;28;20518;-44
2023/12/22 14:19:42;;;;;;;5.40;1.60;;;24.50;43.80;;;;;;10466050;28;20079;-43
2023/12/22 14:24:44;;;;;;;3.63;1.50;;;24.50;43.90;;;;;;10462602;28;20094;-45
2023/12/22 14:29:47;;;;;;;3.45;1.60;;;24.40;43.80;;;;;;10472594;28;20553;-45
2023/12/22 14:34:49;;;;;;;3.40;1.70;;;24.40;43.90;;;;;;10466074;28;20494;-43
2023/12/22 14:39:50;;;;;;;6.00;1.52;;;24.40;44.00;;;;;;10480377;28;20054;-43
2023/12/22 14:44:54;;;;;;;3.20;1.60;;;24.30;44.00;;;;;;10471679;28;20122;-44
2023/12/22 14:49:59;;;;;;;3.05;1.50;;;24.40;44.00;;;;;;10464887;28;20541;-43
2023/12/22 14:55:01;;;;;;;2.15;1.20;;;24.40;44.00;;;;;;10469788;28;20041;-43
2023/12/22 15:00:05;;;;;;;3.47;1.27;;;24.40;44.00;;;;;;10470513;28;20048;-43
2023/12/22 15:05:07;;;;;;;5.85;1.90;;;24.30;44.10;;;;;;10479831;28;20050;-46
2023/12/22 15:10:09;;;;;;;2.78;1.50;;;24.40;44.00;;;;;;10471121;28;20700;-43
2023/12/22 15:15:12;;;;;;;3.63;1.40;;;24.30;44.00;;;;;;10469335;28;20076;-43
2023/12/22 15:20:14;;;;;;;2.92;1.40;;;24.30;44.10;;;;;;10476152;28;20144;-45
2023/12/22 15:25:15;;;;;;;3.35;1.27;;;24.30;44.00;;;;;;10470196;28;20048;-43
2023/12/22 15:30:18;;;;;;;2.53;1.35;;;24.30;44.10;;;;;;10466346;28;20127;-43
2023/12/22 15:35:20;;;;;;;3.38;1.25;;;24.30;44.00;;;;;;10465442;28;20053;-43
2023/12/22 15:40:21;;;;;;;3.03;1.27;;;24.30;44.00;;;;;;10466742;28;20139;-44
2023/12/22 15:45:24;;;;;;;2.28;1.20;;;24.30;44.00;;;;;;10472830;28;20080;-43
2023/12/22 15:50:26;;;;;;;2.53;1.15;;;24.30;44.00;;;;;;10474965;28;20155;-43
2023/12/22 15:55:29;;;;;;;1.90;1.17;;;24.30;44.00;;;;;;10470355;28;20056;-43
2023/12/22 16:00:32;;;;;;;2.10;1.13;;;24.30;44.00;;;;;;10470324;28;20418;-43
2023/12/22 16:05:33;;;;;;;1.88;1.13;;;24.40;43.90;;;;;;10465951;28;20136;-43
2023/12/22 16:10:35;;;;;;;1.67;1.10;;;24.40;44.00;;;;;;10478340;28;20094;-43
2023/12/22 16:15:38;;;;;;;2.50;1.17;;;24.30;44.00;;;;;;10466418;28;20147;-45
2023/12/22 16:20:39;;;;;;;2.63;1.10;;;24.30;44.10;;;;;;10469747;28;20555;-43
2023/12/22 16:25:41;;;;;;;1.38;0.90;;;24.30;43.90;;;;;;10469523;28;20170;-43
2023/12/22 16:30:44;;;;;;;1.75;1.00;;;24.40;44.00;;;;;;10469588;28;20132;-44
2023/12/22 16:35:47;;;;;;;2.72;1.23;;;24.30;44.00;;;;;;10482658;28;20135;-45
2023/12/22 16:40:48;;;;;;;3.15;1.10;;;24.30;43.90;;;;;;10467184;28;20417;-43
2023/12/22 16:45:51;;;;;;;1.70;1.10;;;24.30;44.00;;;;;;10461621;28;20132;-43
2023/12/22 16:50:54;;;;;;;2.38;1.00;;;24.40;43.90;;;;;;10460429;28;20141;-43
2023/12/22 16:55:56;;;;;;;2.33;1.10;;;24.30;43.90;;;;;;10471389;28;20048;-44
2023/12/22 17:00:59;;;;;;;2.67;1.13;;;24.40;43.90;;;;;;10486123;28;20086;-46
2023/12/22 17:06:01;;;;;;;2.63;0.90;;;24.40;43.80;;;;;;10474410;28;20139;-45
2023/12/22 17:11:03;;;;;;;2.80;1.25;;;24.30;43.90;;;;;;10473659;28;20057;-43
2023/12/22 17:16:07;;;;;;;2.10;1.00;;;24.30;43.90;;;;;;10477137;28;20131;-43
2023/12/22 17:21:11;;;;;;;1.77;1.02;;;24.40;43.80;;;;;;10473737;28;20044;-45
2023/12/22 17:26:13;;;;;;;1.80;0.90;;;24.40;43.80;;;;;;10474920;28;20048;-46
2023/12/22 17:31:16;;;;;;;1.70;1.00;;;24.40;43.90;;;;;;10467562;28;20129;-43
2023/12/22 17:36:18;;;;;;;1.55;0.63;;;24.50;43.70;;;;;;10476773;28;20055;-46
2023/12/22 17:41:20;;;;;;;2.22;1.00;;;24.40;43.70;;;;;;10474918;28;20411;-48
2023/12/22 17:46:22;;;;;;;1.33;0.93;;;24.40;43.70;;;;;;10480671;28;20141;-43
2023/12/22 17:51:24;;;;;;;2.00;1.00;;;24.40;43.70;;;;;;10470449;28;20136;-46
2023/12/22 17:56:26;;;;;;;2.05;1.10;;;24.40;43.80;;;;;;10475529;28;20131;-44
2023/12/22 18:01:29;;;;;;;1.50;0.90;;;24.40;44.00;;;;;;10477029;28;20108;-47
2023/12/22 18:06:31;;;;;;;2.38;1.15;;;24.30;43.80;;;;;;10478530;28;20098;-43
2023/12/22 18:11:32;;;;;;;1.45;0.68;;;24.40;43.80;;;;;;10475870;28;20127;-43
2023/12/22 18:16:39;;;;;;;1.00;0.70;;;24.40;43.70;;;;;;10470901;28;20335;-43
2023/12/22 18:21:41;;;;;;;1.25;0.80;;;24.40;43.80;;;;;;10471115;28;20041;-43
2023/12/22 18:26:43;;;;;;;1.05;0.70;;;24.40;43.80;;;;;;10473925;28;20502;-43
2023/12/22 18:31:46;;;;;;;1.08;0.85;;;24.40;43.70;;;;;;10479301;28;20128;-43
2023/12/22 18:36:48;;;;;;;1.52;0.80;;;24.30;43.70;;;;;;10476880;28;20139;-42
2023/12/22 18:41:50;;;;;;;1.67;0.70;;;24.40;43.80;;;;;;10471512;28;20045;-43
2023/12/22 18:46:53;;;;;;;1.30;0.68;;;24.40;43.60;;;;;;10468029;28;20080;-44
2023/12/22 18:51:55;;;;;;;3.40;1.00;;;24.50;43.50;;;;;;10462952;28;20136;-45
2023/12/22 18:56:56;;;;;;;4.90;1.08;;;24.60;41.60;;;;;;10472169;28;20163;-42
2023/12/22 19:01:59;;;;;;;9.23;1.20;;;24.70;41.50;;;;;;10464151;28;20407;-46
2023/12/22 19:07:01;;;;;;;8.25;1.20;;;24.80;41.90;;;;;;10473261;28;20110;-44
2023/12/22 19:12:04;;;;;;;6.93;1.20;;;24.70;42.10;;;;;;10470426;28;20114;-44
2023/12/22 19:17:06;;;;;;;3.28;0.95;;;24.60;42.30;;;;;;10468747;28;20136;-43
2023/12/22 19:22:08;;;;;;;3.20;1.00;;;24.50;42.40;;;;;;10466635;28;20183;-45
2023/12/22 19:27:10;;;;;;;2.50;0.88;;;24.30;42.40;;;;;;10459499;28;20136;-42
2023/12/22 19:32:13;;;;;;;4.03;0.93;;;24.30;42.70;;;;;;10456251;28;20041;-43
2023/12/22 19:37:17;;;;;;;2.25;0.88;;;24.30;42.90;;;;;;10463118;28;20139;-42
2023/12/22 19:42:19;;;;;;;5.80;3.50;;;24.40;43.50;;;;;;10467105;28;20135;-42
2023/12/22 19:47:22;;;;;;;8.23;4.47;;;24.40;44.00;;;;;;10461986;28;20135;-43
2023/12/22 19:52:24;;;;;;;14.90;7.15;;;24.40;44.60;;;;;;10466394;28;20570;-47
2023/12/22 19:57:25;;;;;;;8.07;5.40;;;24.40;44.80;;;;;;10463008;28;20076;-42
2023/12/22 20:02:28;;;;;;;9.32;5.72;;;24.60;43.70;;;;;;10459909;28;20621;-43
2023/12/22 20:07:30;;;;;;;14.05;6.78;;;24.70;43.60;;;;;;10466647;28;20549;-44
2023/12/22 20:12:32;;;;;;;20.05;8.38;;;24.80;43.40;;;;;;10458629;28;20124;-43
2023/12/22 20:17:35;;;;;;;15.25;9.10;;;24.80;43.60;;;;;;10460687;28;20072;-42
2023/12/22 20:22:36;;;;;;;15.05;9.18;;;24.70;43.90;;;;;;10460489;28;20132;-43
2023/12/22 20:27:38;;;;;;;13.75;9.45;;;24.70;44.00;;;;;;10461491;28;20574;-43
2023/12/22 20:32:41;;;;;;;28.17;9.63;;;24.70;44.20;;;;;;10470601;28;20047;-45
2023/12/22 20:37:42;;;;;;;14.45;9.13;;;24.80;43.90;;;;;;10470022;28;20048;-43
2023/12/22 20:42:44;;;;;;;14.07;7.70;;;24.70;43.70;;;;;;10470851;28;20503;-45
2023/12/22 20:47:47;;;;;;;13.68;7.85;;;24.50;43.60;;;;;;10481371;28;20090;-42
2023/12/22 20:52:54;;;;;;;10.90;7.70;;;24.40;43.40;;;;;;10477965;28;20152;-43
2023/12/22 20:57:56;;;;;;;13.73;7.97;;;24.20;43.40;;;;;;10480111;28;20076;-43
2023/12/22 21:02:59;;;;;;;15.00;8.23;;;24.10;43.50;;;;;;10469860;28;20095;-43
2023/12/22 21:08:00;;;;;;;11.73;6.80;;;24.10;43.10;;;;;;10468001;28;20671;-43
2023/12/22 21:13:02;;;;;;;8.30;6.07;;;24.20;42.70;;;;;;10473912;28;20144;-46
2023/12/22 21:18:05;;;;;;;7.88;6.22;;;24.10;42.80;;;;;;10465956;28;20136;-44
2023/12/22 21:23:08;;;;;;;11.68;6.00;;;24.10;42.70;;;;;;10471649;28;20063;-42
2023/12/22 21:28:09;;;;;;;6.57;5.40;;;24.10;42.20;;;;;;10471847;28;20052;-44
2023/12/22 21:33:12;;;;;;;8.02;6.20;;;24.00;42.20;;;;;;10473990;28;20485;-43
2023/12/22 21:38:14;;;;;;;7.20;5.40;;;24.00;42.10;;;;;;10480914;28;20048;-42
2023/12/22 21:43:16;;;;;;;7.00;5.75;;;23.90;42.00;;;;;;10468188;28;20049;-42
2023/12/22 21:48:19;;;;;;;8.50;5.70;;;23.90;41.80;;;;;;10464630;28;20132;-42
2023/12/22 21:53:21;;;;;;;6.75;5.05;;;23.80;42.10;;;;;;10468248;28;20045;-45
2023/12/22 21:58:23;;;;;;;6.75;5.03;;;23.60;42.40;;;;;;10470373;28;20572;-44
2023/12/22 22:03:27;;;;;;;6.70;5.20;;;23.40;42.50;;;;;;10485638;28;20131;-43
2023/12/22 22:08:29;;;;;;;7.03;4.90;;;23.30;42.50;;;;;;10469049;28;20056;-42
2023/12/22 22:13:30;;;;;;;6.80;5.13;;;23.20;42.60;;;;;;10468009;28;20500;-42
2023/12/22 22:18:34;;;;;;;7.07;4.90;;;23.10;42.70;;;;;;10470114;28;20504;-43
2023/12/22 22:23:36;;;;;;;7.13;5.10;;;23.00;42.80;;;;;;10469826;28;20139;-42
2023/12/22 22:28:38;;;;;;;5.63;4.57;;;22.90;42.90;;;;;;10483017;28;20139;-42
2023/12/22 22:33:45;;;;;;;5.07;4.10;;;22.60;43.10;;;;;;10465485;28;20110;-44
2023/12/22 22:38:47;;;;;;;5.80;4.72;;;22.50;43.20;;;;;;10464984;28;20048;-45
2023/12/22 22:43:49;;;;;;;5.25;4.72;;;22.40;43.40;;;;;;10474117;28;20041;-42
2023/12/22 22:48:52;;;;;;;7.70;5.10;;;22.30;43.60;;;;;;10469319;28;20040;-42
2023/12/22 22:53:54;;;;;;;8.60;5.03;;;22.20;43.70;;;;;;10467281;28;20044;-44
2023/12/22 22:58:55;;;;;;;6.13;4.60;;;22.20;43.60;;;;;;10465920;28;20052;-42
2023/12/22 23:03:59;;;;;;;4.90;4.22;;;22.10;43.60;;;;;;10469973;28;20073;-44
2023/12/22 23:09:01;;;;;;;5.80;4.00;;;22.00;43.80;;;;;;10478974;28;20045;-47
2023/12/22 23:14:03;;;;;;;6.07;4.57;;;21.90;43.80;;;;;;10468850;28;20052;-43
2023/12/22 23:19:06;;;;;;;4.60;4.00;;;21.90;43.90;;;;;;10467845;28;20048;-45
2023/12/22 23:24:07;;;;;;;5.10;4.03;;;21.70;44.50;;;;;;10464200;28;20047;-44
2023/12/22 23:29:09;;;;;;;4.65;4.05;;;21.60;45.00;;;;;;10463225;28;20507;-44
2023/12/22 23:34:12;;;;;;;5.63;3.92;;;21.60;45.10;;;;;;10473988;28;20127;-41
2023/12/22 23:39:14;;;;;;;5.45;4.03;;;21.70;45.00;;;;;;10467103;28;20103;-43
2023/12/22 23:44:15;;;;;;;4.20;3.50;;;21.70;44.90;;;;;;10469863;28;20558;-41
2023/12/22 23:49:18;;;;;;;4.32;3.60;;;21.80;44.80;;;;;;10466429;28;20087;-42
2023/12/22 23:54:20;;;;;;;4.30;3.28;;;21.90;44.60;;;;;;10464737;28;20131;-44
2023/12/22 23:59:21;;;;;;;4.70;3.30;;;21.80;44.60;;;;;;10476681;28;20140;-42
